Time;durP1;ratioP1;P1;durP2;ratioP2;P2;SDS_P1;SDS_P2;PMS_P1;PMS_P2;Temp;Humidity;BMP_temperature;BMP_pressure;BME280_temperature;BME280_humidity;BME280_pressure;Samples;Min_cycle;Max_cycle;Signal;HPM_P1;HPM_P2
2021/04/23 00:01:15;;;;;;;41.68;31.95;;;;;;;11.08;94.09;99566.47;1723416;80;21554;-47
2021/04/23 00:03:57;;;;;;;43.87;31.25;;;;;;;11.10;93.63;99578.06;1727652;80;21006;-47
2021/04/23 00:09:21;;;;;;;48.48;33.95;;;;;;;11.18;93.13;99583.89;1787300;79;23078;-48
2021/04/23 00:12:02;;;;;;;;;;;;;;;11.12;92.80;99584.23;1773982;78;20987;-47
2021/04/23 00:14:46;;;;;;;47.20;35.17;;;;;;;11.11;93.16;99581.16;1773574;80;22103;-54
2021/04/23 00:17:14;;;;;;;53.63;36.35;;;;;;;11.11;92.98;99579.80;1770802;80;21054;-53
2021/04/23 00:19:45;;;;;;;45.28;34.98;;;;;;;11.11;92.98;99579.80;1703470;83;21053;-53
2021/04/23 00:22:12;;;;;;;45.70;33.73;;;;;;;11.05;93.13;99572.05;1714067;83;21031;-55
2021/04/23 00:24:40;;;;;;;45.80;34.92;;;;;;;11.05;93.13;99572.05;1705993;83;20982;-53
2021/04/23 00:27:09;;;;;;;47.98;34.92;;;;;;;10.96;93.55;99579.67;1706030;83;21974;-55
2021/04/23 00:29:37;;;;;;;44.93;33.23;;;;;;;10.96;93.55;99579.67;1736733;82;21038;-55
2021/04/23 00:34:52;;;;;;;44.73;32.98;;;;;;;10.82;94.48;99570.14;1735896;82;21535;-54
2021/04/23 00:37:20;;;;;;;46.75;33.67;;;;;;;10.77;95.15;99569.52;1738988;82;21113;-59
2021/04/23 00:39:48;;;;;;;46.65;34.92;;;;;;;10.77;95.15;99569.52;1705462;83;21381;-54
2021/04/23 00:42:17;;;;;;;42.90;33.83;;;;;;;10.77;95.66;99570.86;1707349;83;21145;-55
2021/04/23 00:44:45;;;;;;;47.70;34.58;;;;;;;10.81;95.92;99573.77;1705686;83;21200;-53
2021/04/23 00:47:13;;;;;;;53.55;35.85;;;;;;;10.83;95.64;99578.62;1710459;83;21272;-54
2021/04/23 00:49:41;;;;;;;43.25;32.15;;;;;;;10.78;95.65;99573.95;1739281;82;21155;-56
2021/04/23 00:52:09;;;;;;;47.23;32.83;;;;;;;10.78;95.95;99591.96;1706418;83;21464;-53
2021/04/23 00:54:37;;;;;;;48.42;34.80;;;;;;;10.75;96.50;99604.64;1677704;83;21818;-54
2021/04/23 00:57:05;;;;;;;40.52;31.82;;;;;;;10.72;96.95;99617.44;1702723;83;21143;-54
2021/04/23 00:59:34;;;;;;;46.70;33.28;;;;;;;10.66;96.79;99624.51;1711930;83;21168;-54
2021/04/23 01:02:07;;;;;;;43.17;31.17;;;;;;;10.60;96.83;99631.09;1706646;83;21152;-55
2021/04/23 01:04:35;;;;;;;44.48;32.85;;;;;;;10.54;96.87;99622.43;1714450;83;21446;-54
2021/04/23 01:07:05;;;;;;;43.25;31.87;;;;;;;10.49;97.10;99618.17;1705463;83;21471;-54
2021/04/23 01:09:34;;;;;;;44.03;31.68;;;;;;;10.42;97.61;99608.64;1756600;81;20999;-53
2021/04/23 01:14:41;;;;;;;44.13;32.63;;;;;;;10.45;97.73;99603.11;1822246;76;22755;-54
2021/04/23 01:17:09;;;;;;;40.03;31.35;;;;;;;10.38;97.93;99602.13;1775649;78;20977;-54
2021/04/23 01:19:37;;;;;;;48.33;32.95;;;;;;;10.38;97.93;99602.13;1770344;78;21896;-55
2021/04/23 01:22:06;;;;;;;42.23;30.88;;;;;;;10.35;98.08;99599.14;1766328;79;21533;-53
2021/04/23 01:24:34;;;;;;;41.30;32.98;;;;;;;10.31;98.13;99597.55;1769777;78;21054;-54
2021/04/23 01:27:02;;;;;;;46.20;34.00;;;;;;;10.28;98.13;99592.33;1769896;78;21558;-59
2021/04/23 01:29:30;;;;;;;44.67;33.40;;;;;;;10.28;98.09;99592.33;1770487;78;20970;-54
2021/04/23 01:31:59;;;;;;;40.58;31.87;;;;;;;10.27;98.02;99595.95;1769749;78;22953;-53
2021/04/23 01:34:35;;;;;;;39.92;30.82;;;;;;;10.27;98.02;99595.95;1770704;78;21013;-54
2021/04/23 01:37:04;;;;;;;38.60;29.05;;;;;;;10.29;97.29;99607.55;1768581;78;21042;-54
2021/04/23 01:39:33;;;;;;;42.60;29.52;;;;;;;10.29;97.29;99607.55;1770085;78;21092;-56
2021/04/23 01:42:02;;;;;;;35.78;27.22;;;;;;;10.28;97.11;99607.16;1770453;78;21119;-56
2021/04/23 01:44:30;;;;;;;35.13;26.00;;;;;;;10.27;96.83;99606.73;1770278;78;21354;-55
2021/04/23 01:46:58;;;;;;;34.53;25.45;;;;;;;10.26;96.42;99604.13;1770450;80;21136;-57
2021/04/23 01:49:26;;;;;;;29.50;21.95;;;;;;;10.24;96.22;99608.26;1768673;80;21183;-54
2021/04/23 01:52:00;;;;;;;29.98;22.07;;;;;;;10.21;95.69;99607.02;1764688;78;21939;-53
2021/04/23 01:54:28;;;;;;;30.40;21.33;;;;;;;10.17;95.40;99609.46;1766059;78;21020;-53
2021/04/23 01:56:58;;;;;;;26.57;22.52;;;;;;;10.11;95.63;99604.39;1766317;78;21263;-54
2021/04/23 01:59:27;;;;;;;29.32;22.58;;;;;;;10.11;95.63;99604.39;1770358;78;21004;-55
2021/04/23 02:01:56;;;;;;;27.22;21.00;;;;;;;10.09;95.86;99609.00;1768790;78;21139;-54
2021/04/23 02:04:24;;;;;;;29.42;23.87;;;;;;;10.04;96.14;99606.53;1771731;78;20941;-55
2021/04/23 02:06:54;;;;;;;29.87;23.30;;;;;;;9.98;96.21;99615.80;1770220;78;20991;-54
2021/04/23 02:09:22;;;;;;;30.17;23.25;;;;;;;9.98;96.21;99615.80;1768106;78;21166;-54
2021/04/23 02:11:51;;;;;;;32.75;24.20;;;;;;;9.96;96.92;99615.48;1769103;78;21105;-47
2021/04/23 02:14:23;;;;;;;29.35;23.75;;;;;;;9.92;97.35;99621.49;1772660;78;21195;-50
2021/04/23 02:16:56;;;;;;;32.10;23.10;;;;;;;9.90;97.67;99627.41;1771451;78;21200;-49
2021/04/23 02:19:26;;;;;;;29.87;23.38;;;;;;;9.87;97.90;99627.58;1765605;79;21156;-54
2021/04/23 02:21:55;;;;;;;25.43;20.10;;;;;;;9.86;98.07;99636.62;1769904;78;21549;-52
2021/04/23 02:24:23;;;;;;;23.83;19.45;;;;;;;9.83;98.12;99638.09;1765857;78;21127;-51
2021/04/23 02:26:51;;;;;;;22.98;18.85;;;;;;;9.80;98.43;99642.75;1771928;78;20957;-53
2021/04/23 02:29:19;;;;;;;23.35;19.00;;;;;;;9.80;98.43;99642.75;1771541;78;21147;-53
2021/04/23 02:31:50;;;;;;;18.82;12.88;;;;;;;9.47;94.68;99684.28;1770003;78;21127;-53
2021/04/23 02:34:21;;;;;;;18.50;11.88;;;;;;;9.47;94.68;99684.28;1766012;78;21624;-56
2021/04/23 02:36:49;;;;;;;13.98;11.03;;;;;;;9.16;93.10;99689.29;1766652;78;21124;-54
2021/04/23 02:39:19;;;;;;;15.95;10.08;;;;;;;8.90;92.56;99679.70;1770125;78;20989;-53
2021/04/23 02:41:50;;;;;;;11.43;8.73;;;;;;;8.58;90.08;99696.37;1764488;78;21128;-55
2021/04/23 02:44:18;;;;;;;12.18;9.48;;;;;;;8.28;89.94;99689.09;1769825;79;20982;-54
2021/04/23 02:46:46;;;;;;;12.78;8.48;;;;;;;8.14;90.81;99697.23;1771587;80;21541;-56
2021/04/23 02:49:14;;;;;;;11.28;8.48;;;;;;;8.07;90.69;99698.91;1770719;78;21158;-55
2021/04/23 02:51:45;;;;;;;10.53;7.37;;;;;;;7.99;89.84;99731.91;1772269;78;21017;-55
2021/04/23 02:54:14;;;;;;;12.20;7.62;;;;;;;7.85;87.23;99733.81;1769798;78;21557;-55
2021/04/23 02:56:42;;;;;;;9.53;7.42;;;;;;;7.74;85.59;99735.58;1769746;78;20970;-54
2021/04/23 02:59:10;;;;;;;7.70;6.15;;;;;;;7.66;85.29;99729.61;1769913;78;21270;-54
2021/04/23 03:01:43;;;;;;;8.23;6.25;;;;;;;7.59;84.28;99736.16;1766453;78;21622;-54
2021/04/23 03:04:11;;;;;;;11.68;7.00;;;;;;;7.53;84.24;99741.77;1770461;78;21041;-52
2021/04/23 03:06:39;;;;;;;10.45;6.50;;;;;;;7.46;83.65;99753.67;1768023;78;21051;-52
2021/04/23 03:09:07;;;;;;;13.03;7.22;;;;;;;7.39;83.50;99738.72;1767168;78;21561;-54
2021/04/23 03:11:38;;;;;;;17.42;8.40;;;;;;;7.34;83.03;99765.72;1772679;78;22339;-52
2021/04/23 03:14:06;;;;;;;9.35;6.97;;;;;;;7.29;82.76;99756.95;1733347;80;21021;-53
2021/04/23 03:16:34;;;;;;;13.05;7.62;;;;;;;7.25;82.17;99767.41;1765995;78;21002;-55
2021/04/23 03:19:02;;;;;;;9.63;6.28;;;;;;;7.23;82.65;99782.20;1771160;78;21417;-53
2021/04/23 03:21:30;;;;;;;11.18;7.70;;;;;;;7.21;83.15;99777.84;1768503;78;21552;-52
2021/04/23 03:23:59;;;;;;;13.93;8.55;;;;;;;7.16;83.56;99785.17;1771236;78;22141;-52
2021/04/23 03:26:27;;;;;;;12.70;7.42;;;;;;;7.13;83.95;99783.45;1767377;78;20985;-52
2021/04/23 03:28:55;;;;;;;13.48;7.87;;;;;;;7.10;84.68;99778.22;1768433;78;21112;-53
2021/04/23 03:31:23;;;;;;;11.28;8.00;;;;;;;7.06;84.97;99791.32;1768024;78;21033;-55
2021/04/23 03:33:51;;;;;;;14.45;9.10;;;;;;;7.01;85.30;99783.90;1769495;78;21084;-54
2021/04/23 03:36:19;;;;;;;14.68;7.80;;;;;;;6.97;85.59;99787.61;1768266;78;21424;-51
2021/04/23 03:38:48;;;;;;;12.05;7.00;;;;;;;6.92;85.91;99796.28;1769228;78;21605;-53
2021/04/23 03:41:22;;;;;;;12.15;8.03;;;;;;;6.85;86.07;99810.37;1765248;78;21099;-54
2021/04/23 03:43:51;;;;;;;15.50;9.00;;;;;;;6.81;85.99;99797.98;1771436;78;21011;-54
2021/04/23 03:46:19;;;;;;;11.78;8.33;;;;;;;6.78;86.47;99796.30;1766241;78;21097;-56
2021/04/23 03:48:47;;;;;;;13.93;7.90;;;;;;;6.78;86.85;99801.66;1765802;80;22265;-54
2021/04/23 03:51:16;;;;;;;11.28;8.05;;;;;;;6.79;86.75;99802.07;1771999;78;21145;-53
2021/04/23 03:53:44;;;;;;;14.68;7.87;;;;;;;6.75;87.04;99801.75;1766948;78;21569;-55
2021/04/23 03:56:12;;;;;;;9.98;6.55;;;;;;;6.73;87.40;99811.66;1768514;78;21541;-54
2021/04/23 03:58:41;;;;;;;9.68;6.40;;;;;;;6.69;86.84;99817.17;1769736;78;21100;-54
2021/04/23 04:01:18;;;;;;;8.93;6.28;;;;;;;6.62;86.54;99815.17;1770286;78;21372;-55
2021/04/23 04:03:47;;;;;;;13.18;6.83;;;;;;;6.56;86.42;99838.16;1771095;80;20985;-54
2021/04/23 04:06:15;;;;;;;15.75;7.25;;;;;;;6.48;85.88;99810.72;1756624;79;21696;-54
2021/04/23 04:08:45;;;;;;;11.05;7.15;;;;;;;6.46;86.14;99817.94;1759826;78;20985;-52
2021/04/23 04:11:13;;;;;;;14.43;6.70;;;;;;;6.43;86.26;99828.73;1762487;80;21975;-54
2021/04/23 04:13:43;;;;;;;10.63;6.75;;;;;;;6.41;86.20;99842.66;1772032;79;21017;-54
2021/04/23 04:16:11;;;;;;;11.43;7.33;;;;;;;6.36;86.43;99843.27;1783297;78;20981;-55
2021/04/23 04:18:39;;;;;;;11.75;7.42;;;;;;;6.30;87.15;99838.98;1785270;78;21545;-55
2021/04/23 04:21:08;;;;;;;8.88;6.75;;;;;;;6.24;87.45;99833.35;1783521;78;21159;-55
2021/04/23 04:23:36;;;;;;;11.83;7.15;;;;;;;6.19;88.50;99836.63;1780851;78;21116;-55
2021/04/23 04:26:04;;;;;;;11.05;7.58;;;;;;;6.10;89.36;99842.27;1782364;78;21361;-58
2021/04/23 04:28:33;;;;;;;10.03;6.75;;;;;;;6.00;90.71;99838.98;1783318;78;21617;-55
2021/04/23 04:31:01;;;;;;;12.50;7.28;;;;;;;5.91;92.18;99838.34;1782923;78;21167;-58
2021/04/23 04:33:30;;;;;;;9.70;7.10;;;;;;;5.84;93.33;99843.01;1778278;78;20992;-54
2021/04/23 04:35:59;;;;;;;10.72;7.03;;;;;;;5.76;94.15;99848.60;1783889;78;21234;-53
2021/04/23 04:38:27;;;;;;;19.42;8.45;;;;;;;5.69;95.30;99841.65;1784586;78;21356;-54
2021/04/23 04:40:56;;;;;;;13.72;8.93;;;;;;;5.64;96.43;99848.93;1780298;78;21785;-53
2021/04/23 04:43:26;;;;;;;13.53;8.28;;;;;;;5.59;97.15;99840.16;1783299;78;21129;-52
2021/04/23 04:45:54;;;;;;;12.80;7.42;;;;;;;5.57;97.65;99844.69;1778956;78;21238;-57
2021/04/23 04:48:24;;;;;;;12.03;7.87;;;;;;;5.54;98.48;99846.13;1782535;78;21506;-58
2021/04/23 04:50:57;;;;;;;12.78;9.10;;;;;;;5.52;98.92;99842.60;1779129;78;21265;-58
2021/04/23 04:53:25;;;;;;;13.88;8.05;;;;;;;5.52;99.22;99852.84;1784115;78;21683;-54
2021/04/23 04:55:55;;;;;;;12.35;7.85;;;;;;;5.50;99.24;99845.80;1780517;78;21130;-54
2021/04/23 04:58:26;;;;;;;11.97;8.03;;;;;;;5.50;99.59;99846.67;1779082;78;21485;-57
2021/04/23 05:00:54;;;;;;;12.88;8.05;;;;;;;5.51;99.54;99856.44;1777260;78;20973;-55
2021/04/23 05:03:22;;;;;;;18.87;8.75;;;;;;;5.52;99.75;99849.29;1783408;77;21181;-52
2021/04/23 05:05:50;;;;;;;12.30;7.80;;;;;;;5.54;99.94;99848.80;1783262;78;21131;-55
2021/04/23 05:08:18;;;;;;;16.20;8.20;;;;;;;5.57;100.00;99862.54;1776587;78;21608;-54
2021/04/23 05:10:46;;;;;;;11.68;8.65;;;;;;;5.58;100.00;99854.46;1779927;78;21107;-54
2021/04/23 05:13:14;;;;;;;17.65;9.70;;;;;;;5.60;100.00;99855.31;1781479;78;21163;-54
2021/04/23 05:15:42;;;;;;;14.30;9.93;;;;;;;5.61;100.00;99851.71;1769794;78;21182;-55
2021/04/23 05:18:10;;;;;;;15.63;9.48;;;;;;;5.63;100.00;99849.86;1764546;78;21578;-55
2021/04/23 05:20:38;;;;;;;16.55;9.08;;;;;;;5.66;100.00;99855.14;1768641;79;21668;-58
2021/04/23 05:23:07;;;;;;;14.05;9.40;;;;;;;5.72;100.00;99859.44;1765514;78;21168;-55
2021/04/23 05:25:35;;;;;;;16.20;10.70;;;;;;;5.75;100.00;99860.23;1770964;78;21655;-53
2021/04/23 05:28:05;;;;;;;15.13;9.30;;;;;;;5.81;100.00;99863.66;1766948;78;21459;-54
2021/04/23 05:30:34;;;;;;;19.20;9.68;;;;;;;5.87;100.00;99856.31;1768845;78;21156;-51
2021/04/23 05:33:04;;;;;;;12.93;9.38;;;;;;;5.93;100.00;99849.94;1768220;79;21131;-55
2021/04/23 05:35:34;;;;;;;15.23;9.08;;;;;;;6.00;100.00;99848.81;1766354;78;21099;-56
2021/04/23 05:38:03;;;;;;;12.35;8.20;;;;;;;6.08;100.00;99845.47;1767686;79;21577;-54
2021/04/23 05:40:43;;;;;;;11.57;7.97;;;;;;;6.10;99.58;99850.30;1766418;78;21185;-52
2021/04/23 05:43:10;;;;;;;14.98;8.78;;;;;;;6.11;99.65;99856.53;1767515;78;21117;-56
2021/04/23 05:45:40;;;;;;;17.37;8.95;;;;;;;6.13;99.44;99854.23;1767886;78;21701;-53
2021/04/23 05:48:10;;;;;;;10.65;7.87;;;;;;;6.16;99.17;99855.45;1768753;78;20970;-54
2021/04/23 05:50:39;;;;;;;13.18;8.83;;;;;;;6.20;98.89;99853.58;1766467;78;21273;-53
2021/04/23 05:53:07;;;;;;;14.33;8.58;;;;;;;6.23;98.48;99854.37;1763375;78;22303;-54
2021/04/23 05:55:37;;;;;;;15.85;8.20;;;;;;;6.27;98.07;99858.68;1769313;78;21045;-55
2021/04/23 05:58:05;;;;;;;19.23;8.95;;;;;;;6.33;98.07;99856.73;1767653;79;21013;-55
2021/04/23 06:00:34;;;;;;;13.40;8.28;;;;;;;6.38;97.86;99861.48;1731998;80;21135;-53
2021/04/23 06:03:04;;;;;;;11.48;7.22;;;;;;;6.41;97.12;99854.71;1760534;78;21153;-53
2021/04/23 06:05:32;;;;;;;12.33;7.92;;;;;;;6.43;95.73;99859.08;1766286;78;21205;-54
2021/04/23 06:08:04;;;;;;;14.98;8.95;;;;;;;6.49;95.86;99872.27;1764001;78;21639;-55
2021/04/23 06:10:33;;;;;;;11.55;7.37;;;;;;;6.54;95.50;99864.97;1766571;78;21498;-55
2021/04/23 06:13:01;;;;;;;11.90;6.87;;;;;;;6.61;95.29;99865.67;1767480;78;21187;-56
2021/04/23 06:15:29;;;;;;;8.13;5.50;;;;;;;6.65;94.10;99875.34;1769147;79;21179;-53
2021/04/23 06:17:57;;;;;;;11.55;6.40;;;;;;;6.67;91.96;99873.52;1767844;78;22062;-58
2021/04/23 06:20:29;;;;;;;8.03;6.22;;;;;;;6.70;91.55;99875.20;1778971;78;21139;-51
2021/04/23 06:22:58;;;;;;;8.73;5.95;;;;;;;6.75;90.81;99870.09;1780703;79;21135;-50
2021/04/23 06:25:26;;;;;;;7.37;5.37;;;;;;;6.81;89.62;99879.27;1779108;78;21124;-52
2021/04/23 06:27:54;;;;;;;14.85;8.63;;;;;;;6.88;89.54;99883.12;1772109;78;21008;-52
2021/04/23 06:30:27;;;;;;;12.88;6.85;;;;;;;6.97;89.10;99889.50;1772689;78;21372;-51
2021/04/23 06:32:57;;;;;;;9.63;6.00;;;;;;;7.03;88.38;99886.60;1767003;78;21136;-51
2021/04/23 06:35:25;;;;;;;7.95;5.75;;;;;;;7.04;87.72;99885.70;1777447;78;21154;-53
2021/04/23 06:37:53;;;;;;;13.25;5.75;;;;;;;7.07;87.59;99882.89;1772863;78;21185;-52
2021/04/23 06:40:21;;;;;;;12.37;6.20;;;;;;;7.12;87.76;99887.64;1770739;78;21208;-54
2021/04/23 06:42:49;;;;;;;8.55;5.37;;;;;;;7.20;87.31;99889.61;1774237;78;22155;-55
2021/04/23 06:45:20;;;;;;;9.45;5.78;;;;;;;7.25;87.43;99882.28;1771929;78;21167;-55
2021/04/23 06:47:49;;;;;;;9.40;5.97;;;;;;;7.31;87.83;99882.53;1775183;78;21111;-59
2021/04/23 06:50:19;;;;;;;12.03;5.95;;;;;;;7.38;88.19;99885.88;1774581;78;21615;-56
2021/04/23 06:52:47;;;;;;;10.20;6.08;;;;;;;7.45;88.09;99888.74;1776461;78;21140;-53
2021/04/23 06:55:17;;;;;;;13.53;5.65;;;;;;;7.44;86.70;99897.73;1771293;78;21347;-56
2021/04/23 06:57:46;;;;;;;11.00;6.58;;;;;;;7.47;87.00;99884.22;1774371;78;21147;-55
2021/04/23 07:00:26;;;;;;;14.60;6.90;;;;;;;7.54;87.00;99880.38;1778717;78;21171;-55
2021/04/23 07:02:55;;;;;;;12.35;6.42;;;;;;;7.60;86.63;99890.41;1774620;78;21163;-55
2021/04/23 07:05:24;;;;;;;8.35;5.55;;;;;;;7.66;86.41;99889.31;1778779;78;21115;-53
2021/04/23 07:07:53;;;;;;;8.50;6.28;;;;;;;7.74;86.85;99893.95;1777567;78;22119;-54
2021/04/23 07:10:25;;;;;;;9.33;6.20;;;;;;;7.78;86.67;99886.20;1773783;78;21585;-58
2021/04/23 07:12:53;;;;;;;11.78;6.72;;;;;;;7.84;85.72;99895.37;1771412;78;21139;-54
2021/04/23 07:15:23;;;;;;;8.18;5.72;;;;;;;7.84;84.40;99891.34;1773831;78;21208;-54
2021/04/23 07:17:52;;;;;;;8.88;5.65;;;;;;;7.81;82.89;99890.11;1763130;78;21178;-54
2021/04/23 07:20:22;;;;;;;8.88;5.28;;;;;;;7.80;82.95;99901.78;1772182;78;22305;-56
2021/04/23 07:22:51;;;;;;;8.45;5.03;;;;;;;7.81;81.85;99900.84;1764620;78;21601;-55
2021/04/23 07:25:21;;;;;;;11.75;5.53;;;;;;;7.77;80.42;99896.98;1777454;78;21156;-56
2021/04/23 07:27:49;;;;;;;9.68;5.30;;;;;;;7.75;80.33;99898.38;1769516;78;21108;-56
2021/04/23 07:30:24;;;;;;;15.28;6.28;;;;;;;7.83;80.41;99904.37;1745653;80;21146;-54
2021/04/23 07:32:52;;;;;;;12.73;6.90;;;;;;;7.87;80.71;99899.73;1734263;80;21145;-56
2021/04/23 07:35:20;;;;;;;8.90;5.58;;;;;;;7.93;80.44;99901.32;1738625;80;21271;-57
2021/04/23 07:37:48;;;;;;;8.35;5.72;;;;;;;7.95;80.15;99907.53;1722923;80;21155;-58
2021/04/23 07:40:18;;;;;;;10.90;5.95;;;;;;;7.98;79.44;99908.27;1723844;80;21143;-53
2021/04/23 07:42:46;;;;;;;10.93;6.37;;;;;;;8.01;79.62;99906.83;1722158;80;21569;-56
2021/04/23 07:45:15;;;;;;;15.03;6.80;;;;;;;8.03;79.24;99910.79;1730140;80;21210;-55
2021/04/23 07:47:43;;;;;;;12.55;7.60;;;;;;;8.07;79.61;99907.06;1775646;79;21198;-56
2021/04/23 07:50:18;;;;;;;13.13;6.78;;;;;;;8.15;80.04;99904.98;1774141;79;21396;-54
2021/04/23 07:52:46;;;;;;;14.68;6.72;;;;;;;8.28;79.27;99898.19;1766099;79;21143;-53
2021/04/23 07:55:15;;;;;;;7.80;5.53;;;;;;;8.39;79.29;99901.36;1768080;79;21159;-54
2021/04/23 07:57:46;;;;;;;13.78;7.00;;;;;;;8.54;77.75;99896.34;1777773;79;22177;-54
2021/04/23 08:00:16;;;;;;;11.93;6.70;;;;;;;8.58;77.20;99897.97;1772153;79;21155;-54
2021/04/23 08:02:44;;;;;;;6.75;5.10;;;;;;;8.59;77.26;99897.91;1769046;79;21104;-55
2021/04/23 08:05:17;;;;;;;8.20;5.17;;;;;;;8.59;76.68;99888.97;1759754;79;21131;-53
2021/04/23 08:07:46;;;;;;;10.05;5.75;;;;;;;8.59;76.32;99898.38;1765567;79;21116;-54
2021/04/23 08:10:17;;;;;;;10.53;6.03;;;;;;;8.56;76.48;99891.77;1768019;79;21541;-59
2021/04/23 08:12:48;;;;;;;10.53;5.72;;;;;;;8.54;76.54;99904.40;1767766;79;21111;-59
2021/04/23 08:15:17;;;;;;;7.78;5.60;;;;;;;8.54;77.11;99903.05;1772610;79;21505;-52
2021/04/23 08:17:46;;;;;;;7.42;5.42;;;;;;;8.54;76.93;99903.05;1767275;79;21139;-54
2021/04/23 08:20:16;;;;;;;7.22;5.47;;;;;;;8.59;77.09;99901.06;1764616;79;20998;-53
2021/04/23 08:22:44;;;;;;;13.72;6.45;;;;;;;8.64;76.57;99905.79;1762626;80;21259;-52
2021/04/23 08:25:16;;;;;;;11.73;5.97;;;;;;;8.64;76.07;99902.63;1765268;79;21143;-52
2021/04/23 08:27:46;;;;;;;8.35;5.92;;;;;;;8.62;76.17;99905.83;1762750;79;21581;-52
2021/04/23 08:30:16;;;;;;;11.57;6.22;;;;;;;8.56;75.80;99902.52;1770770;79;22004;-57
2021/04/23 08:32:44;;;;;;;13.58;7.05;;;;;;;8.58;75.76;99910.06;1752099;80;21567;-56
2021/04/23 08:35:13;;;;;;;11.40;5.90;;;;;;;8.55;75.36;99907.48;1725124;81;21346;-52
2021/04/23 08:37:43;;;;;;;9.28;6.12;;;;;;;8.59;75.91;99907.78;1767842;79;21064;-50
2021/04/23 08:40:13;;;;;;;14.20;8.00;;;;;;;8.67;75.55;99906.99;1738973;80;21695;-54
2021/04/23 08:42:42;;;;;;;15.37;7.03;;;;;;;8.75;75.71;99902.67;1768366;79;20950;-55
2021/04/23 08:45:17;;;;;;;12.15;7.30;;;;;;;8.87;75.29;99908.41;1756588;80;21719;-54
2021/04/23 08:47:46;;;;;;;12.13;8.05;;;;;;;8.99;74.83;99922.30;1771778;79;21905;-56
2021/04/23 08:50:16;;;;;;;14.47;7.80;;;;;;;9.09;74.84;99915.13;1749863;80;22141;-55
2021/04/23 08:52:46;;;;;;;8.00;6.83;;;;;;;9.18;73.85;99913.88;1750424;80;21846;-56
2021/04/23 08:55:17;;;;;;;10.82;7.70;;;;;;;9.25;74.20;99911.33;1721429;81;21206;-53
2021/04/23 08:57:47;;;;;;;11.83;6.75;;;;;;;9.35;73.91;99913.16;1719575;81;21670;-50
2021/04/23 09:00:16;;;;;;;10.50;7.22;;;;;;;9.49;73.54;99908.55;1773340;79;21374;-48
2021/04/23 09:02:44;;;;;;;14.68;8.10;;;;;;;9.62;73.13;99904.36;1744926;80;21931;-50
2021/04/23 09:05:14;;;;;;;11.38;7.80;;;;;;;9.75;72.21;99902.89;1754520;80;21166;-54
2021/04/23 09:07:42;;;;;;;13.35;8.08;;;;;;;9.84;71.20;99899.77;1766788;79;21097;-56
2021/04/23 09:10:14;;;;;;;11.88;6.78;;;;;;;9.94;70.84;99901.10;1759392;80;21004;-55
2021/04/23 09:12:42;;;;;;;11.70;7.20;;;;;;;10.00;69.55;99897.73;1750308;80;21376;-55
2021/04/23 09:15:26;;;;;;;12.03;7.65;;;;;;;9.96;69.36;99888.45;1729201;81;21151;-56
2021/04/23 09:18:17;;;;;;;14.13;7.80;;;;;;;9.94;69.23;99895.71;1715627;81;21406;-54
2021/04/23 09:20:47;;;;;;;11.68;6.95;;;;;;;10.01;68.83;99900.82;1777895;79;21151;-55
2021/04/23 09:23:19;;;;;;;13.70;6.80;;;;;;;10.08;67.74;99899.61;1778609;79;21100;-55
2021/04/23 09:25:53;;;;;;;12.78;7.62;;;;;;;10.12;67.54;99899.85;1778531;79;22938;-53
2021/04/23 09:28:39;;;;;;;11.43;6.87;;;;;;;10.16;66.10;99900.12;1759968;79;21195;-49
2021/04/23 09:31:33;;;;;;;11.40;7.35;;;;;;;10.16;66.10;99900.12;1771529;79;21159;-49
2021/04/23 09:34:05;;;;;;;14.05;8.05;;;;;;;10.12;65.43;99902.10;1773791;79;21631;-51
2021/04/23 09:36:44;;;;;;;11.05;7.72;;;;;;;10.12;65.43;99902.10;1774211;79;21573;-49
2021/04/23 09:39:23;;;;;;;10.00;7.28;;;;;;;10.12;65.57;99898.06;1772742;79;22184;-51
2021/04/23 09:42:02;;;;;;;12.13;7.00;;;;;;;10.13;65.26;99900.28;1765860;79;21164;-50
2021/04/23 09:44:50;;;;;;;11.57;7.27;;;;;;;10.16;65.01;99902.81;1761974;79;21024;-52
2021/04/23 09:47:21;;;;;;;11.73;7.42;;;;;;;10.24;65.25;99896.65;1760769;79;22046;-53
2021/04/23 09:49:57;;;;;;;14.28;8.15;;;;;;;10.35;64.54;99895.67;1758844;79;21112;-50
2021/04/23 09:52:26;;;;;;;10.38;6.60;;;;;;;10.46;64.48;99906.81;1759911;79;21353;-56
2021/04/23 09:54:57;;;;;;;9.55;5.67;;;;;;;10.53;63.26;99913.27;1764915;79;21585;-52
2021/04/23 09:57:36;;;;;;;7.85;6.00;;;;;;;10.52;57.84;99910.17;1859458;74;23213;-52
2021/04/23 10:00:07;;;;;;;11.23;6.10;;;;;;;10.39;57.33;99910.77;1856937;75;20981;-53
2021/04/23 10:02:35;;;;;;;22.75;12.43;;;;;;;10.37;58.76;99901.84;1781396;80;21355;-52
2021/04/23 10:05:05;;;;;;;18.70;10.65;;;;;;;10.41;59.43;99898.55;1774694;80;21025;-53
2021/04/23 10:07:33;;;;;;;13.95;6.55;;;;;;;10.49;59.31;99899.95;1805927;78;21361;-54
2021/04/23 10:12:53;;;;;;;12.03;6.37;;;;;;;10.63;56.67;99876.34;1822010;76;22717;-55
2021/04/23 10:15:23;;;;;;;11.83;6.10;;;;;;;10.59;56.64;99876.56;1812098;77;21187;-53
2021/04/23 10:17:58;;;;;;;12.25;5.80;;;;;;;10.58;56.54;99877.52;1812027;77;21186;-53
2021/04/23 10:20:35;;;;;;;10.80;6.40;;;;;;;10.62;56.17;99873.73;1813389;77;20985;-52
2021/04/23 10:23:05;;;;;;;12.88;5.85;;;;;;;10.69;56.08;99877.86;1811682;77;20978;-55
2021/04/23 10:25:35;;;;;;;8.15;5.08;;;;;;;10.85;56.02;99878.86;1809944;77;20977;-51
2021/04/23 10:28:08;;;;;;;9.45;5.15;;;;;;;10.99;54.47;99876.36;1813336;77;21530;-51
2021/04/23 10:30:47;;;;;;;11.60;4.95;;;;;;;10.99;54.09;99883.11;1811870;77;21346;-51
2021/04/23 10:33:18;;;;;;;12.15;5.75;;;;;;;10.97;53.34;99882.77;1810303;79;20958;-52
2021/04/23 10:35:56;;;;;;;7.95;4.78;;;;;;;10.97;53.27;99873.32;1851579;74;23374;-50
2021/04/23 10:38:35;;;;;;;12.05;6.17;;;;;;;10.93;53.58;99880.72;1814073;77;21545;-51
2021/04/23 10:41:06;;;;;;;9.65;5.10;;;;;;;10.95;53.60;99869.36;1808618;77;21472;-52
2021/04/23 10:43:35;;;;;;;8.88;5.33;;;;;;;11.04;53.73;99864.47;1806661;77;21379;-51
2021/04/23 10:46:15;;;;;;;13.10;5.25;;;;;;;11.10;53.41;99864.16;1800223;77;21218;-51
2021/04/23 10:48:45;;;;;;;11.10;5.10;;;;;;;11.12;52.78;99862.23;1807887;77;20984;-50
2021/04/23 10:51:27;;;;;;;11.43;5.58;;;;;;;11.17;52.75;99852.08;1807190;77;20965;-58
2021/04/23 10:54:14;;;;;;;9.60;5.08;;;;;;;11.28;52.12;99857.80;1804938;77;22107;-54
2021/04/23 10:56:42;;;;;;;8.48;5.03;;;;;;;11.41;51.48;99850.83;1814020;77;21073;-52
2021/04/23 10:59:28;;;;;;;10.00;4.92;;;;;;;11.60;51.44;99855.25;1789367;77;23084;-51
2021/04/23 11:02:16;;;;;;;7.22;4.53;;;;;;;11.64;50.74;99847.39;1759499;78;21695;-51
2021/04/23 11:05:00;;;;;;;10.08;4.62;;;;;;;11.73;50.15;99856.36;1721478;82;21387;-52
2021/04/23 11:07:30;;;;;;;9.65;5.17;;;;;;;11.79;49.88;99858.73;1758829;78;21139;-52
2021/04/23 11:10:01;;;;;;;8.88;4.60;;;;;;;11.81;49.45;99858.16;1722119;81;21002;-52
2021/04/23 11:12:30;;;;;;;9.93;4.67;;;;;;;11.79;49.13;99861.44;1759652;79;21581;-51
2021/04/23 11:15:16;;;;;;;8.88;4.05;;;;;;;11.74;47.70;99866.21;1724926;81;22044;-52
2021/04/23 11:17:45;;;;;;;12.37;6.37;;;;;;;11.67;47.73;99859.39;1757914;78;21369;-52
2021/04/23 11:20:26;;;;;;;8.30;3.90;;;;;;;11.60;48.17;99855.25;1757847;79;20997;-52
2021/04/23 11:23:03;;;;;;;8.38;4.03;;;;;;;11.60;47.76;99859.30;1809828;77;22763;-51
2021/04/23 11:25:33;;;;;;;6.67;4.20;;;;;;;11.45;48.63;99855.13;1775956;78;25333;-51
2021/04/23 11:28:07;;;;;;;7.12;3.85;;;;;;;11.42;48.82;99862.02;1692447;81;21309;-54
2021/04/23 11:31:06;;;;;;;6.78;3.85;;;;;;;11.39;49.47;99850.02;1746106;79;21041;-51
2021/04/23 11:33:47;;;;;;;8.38;3.90;;;;;;;11.39;49.79;99858.12;1746655;79;21218;-52
2021/04/23 11:36:37;;;;;;;8.10;4.12;;;;;;;11.34;49.68;99857.48;1747619;80;21918;-53
2021/04/23 11:39:11;;;;;;;11.30;4.10;;;;;;;11.27;50.08;99859.62;1747839;79;21505;-52
2021/04/23 11:42:00;;;;;;;10.58;5.00;;;;;;;11.26;50.59;99857.02;1746489;80;21426;-52
2021/04/23 11:44:51;;;;;;;6.60;3.65;;;;;;;11.28;50.92;99853.75;1747393;80;21669;-52
2021/04/23 11:47:30;;;;;;;6.80;3.72;;;;;;;11.32;51.44;99851.30;1744370;79;21590;-52
2021/04/23 11:50:16;;;;;;;6.25;3.90;;;;;;;11.40;51.04;99847.73;1805078;77;28464;-51
2021/04/23 11:52:51;;;;;;;7.62;3.83;;;;;;;11.38;50.63;99842.88;1800783;78;20975;-55
2021/04/23 11:55:30;;;;;;;8.60;4.05;;;;;;;11.46;50.19;99832.56;1801755;78;22801;-59
2021/04/23 11:58:09;;;;;;;7.10;3.67;;;;;;;11.41;49.30;99826.53;1776872;79;20978;-58